< < Back
Terminal Aerodrome Forecast


Current Version              Previous Versions:   1  2  3  4  5  6  7  8  9  

Terminal Aerodrome Forecast

293
FTUS44 KBMX 251100
TAFBHM
TAF
KBHM 251123Z 2512/2612 00000KT P6SM SKC
     FM251400 34006KT P6SM SKC=

Latest METAR

299
SAUS70 KWBC 252300 RRB
MTRBHM
METAR KBHM 252253Z 28005KT 10SM CLR 22/14 A3006 RMK AO2 SLP175
T02220139


USA.gov is the U.S. government's official web portal to all federal, state and local government web resources and services.